El Hierro > WETTERSTATION La Dehesa - Frontera

AKTUELLE DATEN Online

Letztes Update am 10 minutos

20.1 ºC

Temperatur

69

Feuchtigkeit (%)

Druck (mb)

0

Niederschlag (mm)

46.5 NO

Wind (Km/h)

TÄGLICHE DATEN

Temperatur in den letzten 24 Stunden (ºC)

Luftfeuchtigkeit letzte 24 Stunden (%)

Atmosphärischer Druck in den letzten 24 Stunden últimas 24 horas (mb)

Niederschläge in den letzten 24 Stunden (mm)

Windböen in den letzten 24 Stunden (Km/h)

Stunde Temperatur (°C) ºC Niederschlag (mm) mm Druck (mb) mb Feuchtigkeit (%) % Wind (Km/h) km/h
28 - 11:00 21.5 0 0 56 37 NO
28 - 12:00 22 0 0 61 44.6 NO
28 - 13:00 22.1 0 0 64 39.4 NO
28 - 14:00 22.2 0 0 59 31.2 NO
28 - 15:00 23 0 0 29 39.3 NO
28 - 16:00 23.1 0 0 23 43.5 NO
28 - 17:00 22.9 0 0 22 59.9 NO
28 - 18:00 22.8 0 0 22 52.1 NO
28 - 19:00 23.1 0 0 20 54.2 NO
28 - 20:00 22 0 0 28 48.6 NO
28 - 21:00 21.7 0 0 33 27.9 NO
28 - 22:00 20.8 0 0 27 41.9 O
28 - 23:00 20.4 0 0 30 30.4 SW
29 - 00:00 20.1 0 0 35 53.7 NO
29 - 01:00 19.4 0 0 71 38.7 NO
29 - 02:00 19.4 0 0 67 24.5 O
29 - 03:00 19.1 0 0 74 53.7 NO
29 - 04:00 18.9 0 0 72 53.1 NO
29 - 05:00 18.9 0 0 71 39.8 NO
29 - 06:00 19 0 0 81 43.8 NO
29 - 07:00 19 0 0 70 51.9 NO
29 - 08:00 19.1 0 0 74 48 NO
29 - 09:00 18.9 0 0 74 33.8 NO
29 - 10:00 18.8 0 0 80 48.1 NO
29 - 11:00 20.1 0 0 69 46.5 NO
Apalmet nutzt eigene Cookies sowie Cookies von Dritten um unsere Dienstleistungen zu verbessern Cookies.